sensor_id;sensor_type;location;lat;lon;timestamp;pressure;altitude;pressure_sealevel;temperature;humidity
12897;BME280;6516;35.028;32.372;2022-11-18T00:01:06;100199.41;;;17.12;85.00
12897;BME280;6516;35.028;32.372;2022-11-18T00:03:36;100203.00;;;17.11;84.66
12897;BME280;6516;35.028;32.372;2022-11-18T00:06:04;100205.78;;;17.08;85.10
12897;BME280;6516;35.028;32.372;2022-11-18T00:08:33;100201.41;;;17.07;85.49
12897;BME280;6516;35.028;32.372;2022-11-18T00:11:04;100195.22;;;17.06;85.37
12897;BME280;6516;35.028;32.372;2022-11-18T00:13:33;100200.41;;;17.09;85.53
12897;BME280;6516;35.028;32.372;2022-11-18T00:16:14;100185.06;;;17.16;85.32
12897;BME280;6516;35.028;32.372;2022-11-18T00:18:43;100183.13;;;17.19;85.42
12897;BME280;6516;35.028;32.372;2022-11-18T00:21:11;100185.53;;;17.25;84.71
12897;BME280;6516;35.028;32.372;2022-11-18T00:23:39;100184.66;;;17.25;84.90
12897;BME280;6516;35.028;32.372;2022-11-18T00:26:09;100183.16;;;17.18;85.44
12897;BME280;6516;35.028;32.372;2022-11-18T00:28:38;100185.31;;;17.10;85.61
12897;BME280;6516;35.028;32.372;2022-11-18T00:31:08;100178.53;;;17.03;85.71
12897;BME280;6516;35.028;32.372;2022-11-18T00:33:37;100186.06;;;16.93;86.39
12897;BME280;6516;35.028;32.372;2022-11-18T00:36:09;100180.81;;;16.92;86.63
12897;BME280;6516;35.028;32.372;2022-11-18T00:38:38;100178.25;;;16.89;87.13
12897;BME280;6516;35.028;32.372;2022-11-18T00:41:07;100171.16;;;16.89;87.16
12897;BME280;6516;35.028;32.372;2022-11-18T00:43:36;100170.00;;;16.95;87.12
12897;BME280;6516;35.028;32.372;2022-11-18T00:46:05;100162.50;;;17.04;87.33
12897;BME280;6516;35.028;32.372;2022-11-18T00:48:33;100169.97;;;17.16;86.71
12897;BME280;6516;35.028;32.372;2022-11-18T00:51:09;100166.81;;;17.27;87.62
12897;BME280;6516;35.028;32.372;2022-11-18T00:53:39;100172.53;;;17.38;88.84
12897;BME280;6516;35.028;32.372;2022-11-18T00:56:07;100171.44;;;17.43;89.11
12897;BME280;6516;35.028;32.372;2022-11-18T00:58:35;100187.19;;;17.48;89.51
12897;BME280;6516;35.028;32.372;2022-11-18T01:01:03;100192.78;;;17.42;90.38
12897;BME280;6516;35.028;32.372;2022-11-18T01:03:33;100211.78;;;17.13;93.28
12897;BME280;6516;35.028;32.372;2022-11-18T01:06:01;100209.13;;;16.93;94.81
12897;BME280;6516;35.028;32.372;2022-11-18T01:08:30;100202.66;;;16.78;95.98
12897;BME280;6516;35.028;32.372;2022-11-18T01:10:58;100204.22;;;16.62;96.42
12897;BME280;6516;35.028;32.372;2022-11-18T01:13:48;100206.50;;;16.50;97.05
12897;BME280;6516;35.028;32.372;2022-11-18T01:16:17;100199.84;;;16.40;96.53
12897;BME280;6516;35.028;32.372;2022-11-18T01:18:45;100193.19;;;16.28;97.53
12897;BME280;6516;35.028;32.372;2022-11-18T01:21:14;100187.47;;;16.17;98.13
12897;BME280;6516;35.028;32.372;2022-11-18T01:23:43;100196.72;;;16.07;100.00
12897;BME280;6516;35.028;32.372;2022-11-18T01:26:14;100196.16;;;15.99;100.00
12897;BME280;6516;35.028;32.372;2022-11-18T01:28:43;100197.25;;;15.94;100.00
12897;BME280;6516;35.028;32.372;2022-11-18T01:31:12;100196.63;;;15.87;100.00
12897;BME280;6516;35.028;32.372;2022-11-18T01:33:41;100199.50;;;15.81;100.00
12897;BME280;6516;35.028;32.372;2022-11-18T01:36:16;100199.56;;;15.80;100.00
12897;BME280;6516;35.028;32.372;2022-11-18T01:38:47;100203.22;;;15.77;100.00
12897;BME280;6516;35.028;32.372;2022-11-18T01:41:17;100206.59;;;15.81;100.00
12897;BME280;6516;35.028;32.372;2022-11-18T01:43:51;100203.72;;;15.87;100.00
12897;BME280;6516;35.028;32.372;2022-11-18T01:46:21;100199.28;;;15.87;100.00
12897;BME280;6516;35.028;32.372;2022-11-18T01:48:53;100192.97;;;15.90;100.00
12897;BME280;6516;35.028;32.372;2022-11-18T01:51:25;100197.25;;;15.94;100.00
12897;BME280;6516;35.028;32.372;2022-11-18T01:54:01;100190.69;;;16.02;100.00
12897;BME280;6516;35.028;32.372;2022-11-18T01:56:36;100188.66;;;16.09;100.00
12897;BME280;6516;35.028;32.372;2022-11-18T01:59:09;100187.78;;;16.10;100.00
12897;BME280;6516;35.028;32.372;2022-11-18T02:01:40;100187.63;;;16.13;100.00
12897;BME280;6516;35.028;32.372;2022-11-18T02:04:08;100192.81;;;16.16;100.00
12897;BME280;6516;35.028;32.372;2022-11-18T02:06:37;100187.41;;;16.19;100.00
12897;BME280;6516;35.028;32.372;2022-11-18T02:09:07;100198.88;;;16.19;100.00
12897;BME280;6516;35.028;32.372;2022-11-18T02:11:35;100190.19;;;16.16;100.00
12897;BME280;6516;35.028;32.372;2022-11-18T02:14:21;100186.63;;;16.15;100.00
12897;BME280;6516;35.028;32.372;2022-11-18T02:17:03;100183.31;;;16.10;100.00
12897;BME280;6516;35.028;32.372;2022-11-18T02:19:51;100186.16;;;16.06;100.00
12897;BME280;6516;35.028;32.372;2022-11-18T02:23:06;100189.03;;;16.00;100.00
12897;BME280;6516;35.028;32.372;2022-11-18T02:29:13;100182.06;;;15.97;100.00
12897;BME280;6516;35.028;32.372;2022-11-18T02:31:47;100183.97;;;15.94;100.00
12897;BME280;6516;35.028;32.372;2022-11-18T02:34:30;100183.97;;;15.94;100.00
12897;BME280;6516;35.028;32.372;2022-11-18T02:37:07;100192.88;;;15.93;100.00
12897;BME280;6516;35.028;32.372;2022-11-18T02:39:46;100195.47;;;15.94;100.00
12897;BME280;6516;35.028;32.372;2022-11-18T02:42:18;100198.06;;;15.96;100.00
12897;BME280;6516;35.028;32.372;2022-11-18T02:44:51;100202.50;;;15.95;100.00
12897;BME280;6516;35.028;32.372;2022-11-18T02:47:23;100192.66;;;15.97;100.00
12897;BME280;6516;35.028;32.372;2022-11-18T02:49:57;100194.28;;;16.01;100.00
12897;BME280;6516;35.028;32.372;2022-11-18T02:52:27;100195.91;;;16.05;100.00
12897;BME280;6516;35.028;32.372;2022-11-18T02:54:57;100199.28;;;16.09;100.00
12897;BME280;6516;35.028;32.372;2022-11-18T02:57:27;100197.41;;;16.12;100.00
12897;BME280;6516;35.028;32.372;2022-11-18T02:59:58;100198.13;;;16.16;100.00
12897;BME280;6516;35.028;32.372;2022-11-18T03:02:25;100197.84;;;16.23;100.00
12897;BME280;6516;35.028;32.372;2022-11-18T03:04:54;100200.06;;;16.34;100.00
12897;BME280;6516;35.028;32.372;2022-11-18T03:07:28;100207.69;;;16.43;99.59
12897;BME280;6516;35.028;32.372;2022-11-18T03:09:58;100208.13;;;16.54;99.22
12897;BME280;6516;35.028;32.372;2022-11-18T03:12:31;100212.22;;;16.62;98.96
12897;BME280;6516;35.028;32.372;2022-11-18T03:15:14;100212.94;;;16.66;98.92
12897;BME280;6516;35.028;32.372;2022-11-18T03:17:54;100218.94;;;16.71;98.62
12897;BME280;6516;35.028;32.372;2022-11-18T03:20:28;100224.19;;;16.72;98.31
12897;BME280;6516;35.028;32.372;2022-11-18T03:23:04;100230.28;;;16.74;98.31
12897;BME280;6516;35.028;32.372;2022-11-18T03:25:37;100232.88;;;16.76;98.25
12897;BME280;6516;35.028;32.372;2022-11-18T03:28:15;100234.75;;;16.74;98.38
12897;BME280;6516;35.028;32.372;2022-11-18T03:30:51;100232.22;;;16.71;98.88
12897;BME280;6516;35.028;32.372;2022-11-18T03:33:24;100235.56;;;16.76;98.57
12897;BME280;6516;35.028;32.372;2022-11-18T03:35:56;100244.03;;;16.85;98.10
12897;BME280;6516;35.028;32.372;2022-11-18T03:38:29;100246.63;;;16.87;98.03
12897;BME280;6516;35.028;32.372;2022-11-18T03:41:03;100244.03;;;16.85;97.77
12897;BME280;6516;35.028;32.372;2022-11-18T03:43:37;100252.66;;;16.90;97.56
12897;BME280;6516;35.028;32.372;2022-11-18T03:46:12;100255.38;;;16.89;97.25
12897;BME280;6516;35.028;32.372;2022-11-18T03:48:44;100252.84;;;16.86;97.67
12897;BME280;6516;35.028;32.372;2022-11-18T03:51:18;100262.69;;;16.84;97.45
12897;BME280;6516;35.028;32.372;2022-11-18T03:53:52;100258.84;;;16.91;96.98
12897;BME280;6516;35.028;32.372;2022-11-18T03:56:28;100257.13;;;16.90;97.25
12897;BME280;6516;35.028;32.372;2022-11-18T03:59:01;100256.88;;;16.96;96.85
12897;BME280;6516;35.028;32.372;2022-11-18T04:01:35;100261.19;;;16.98;96.46
12897;BME280;6516;35.028;32.372;2022-11-18T04:04:05;100258.00;;;16.90;96.98
12897;BME280;6516;35.028;32.372;2022-11-18T04:06:37;100259.09;;;16.85;97.38
12897;BME280;6516;35.028;32.372;2022-11-18T04:09:12;100267.91;;;16.87;96.73
12897;BME280;6516;35.028;32.372;2022-11-18T04:11:46;100267.91;;;16.87;96.77
12897;BME280;6516;35.028;32.372;2022-11-18T04:14:32;100263.25;;;16.92;96.23
12897;BME280;6516;35.028;32.372;2022-11-18T04:17:07;100275.50;;;16.96;95.90
12897;BME280;6516;35.028;32.372;2022-11-18T04:19:37;100273.44;;;17.02;95.38
12897;BME280;6516;35.028;32.372;2022-11-18T04:22:05;100268.13;;;17.02;95.32
12897;BME280;6516;35.028;32.372;2022-11-18T04:24:33;100268.44;;;16.95;95.75
12897;BME280;6516;35.028;32.372;2022-11-18T04:27:01;100272.97;;;16.93;96.02
12897;BME280;6516;35.028;32.372;2022-11-18T04:29:29;100264.97;;;16.93;95.67
12897;BME280;6516;35.028;32.372;2022-11-18T04:31:57;100263.31;;;16.90;96.37
12897;BME280;6516;35.028;32.372;2022-11-18T04:34:26;100273.22;;;16.87;96.25
12897;BME280;6516;35.028;32.372;2022-11-18T04:36:55;100271.72;;;16.80;97.10
12897;BME280;6516;35.028;32.372;2022-11-18T04:39:23;100269.28;;;16.75;97.12
12897;BME280;6516;35.028;32.372;2022-11-18T04:41:50;100277.25;;;16.75;97.47
12897;BME280;6516;35.028;32.372;2022-11-18T04:44:26;100277.16;;;16.77;97.60
12897;BME280;6516;35.028;32.372;2022-11-18T04:46:56;100271.00;;;16.76;98.13
12897;BME280;6516;35.028;32.372;2022-11-18T04:49:26;100271.66;;;16.81;97.73
12897;BME280;6516;35.028;32.372;2022-11-18T04:51:55;100269.47;;;16.91;97.24
12897;BME280;6516;35.028;32.372;2022-11-18T04:54:25;100278.00;;;16.99;96.77
12897;BME280;6516;35.028;32.372;2022-11-18T04:56:54;100281.09;;;17.10;95.59
12897;BME280;6516;35.028;32.372;2022-11-18T04:59:24;100281.72;;;17.16;95.06
12897;BME280;6516;35.028;32.372;2022-11-18T05:01:54;100279.50;;;17.26;94.36
12897;BME280;6516;35.028;32.372;2022-11-18T05:04:23;100290.03;;;17.29;94.58
12897;BME280;6516;35.028;32.372;2022-11-18T05:06:55;100284.59;;;17.32;93.89
12897;BME280;6516;35.028;32.372;2022-11-18T05:09:23;100291.34;;;17.40;93.89
12897;BME280;6516;35.028;32.372;2022-11-18T05:11:51;100297.44;;;17.42;94.08
12897;BME280;6516;35.028;32.372;2022-11-18T05:14:36;100298.91;;;17.49;93.19
12897;BME280;6516;35.028;32.372;2022-11-18T05:17:06;100296.03;;;17.54;93.42
12897;BME280;6516;35.028;32.372;2022-11-18T05:19:38;100308.28;;;17.58;93.07
12897;BME280;6516;35.028;32.372;2022-11-18T05:22:06;100311.50;;;17.66;92.50
12897;BME280;6516;35.028;32.372;2022-11-18T05:24:33;100312.03;;;17.74;91.84
12897;BME280;6516;35.028;32.372;2022-11-18T05:27:01;100315.22;;;17.82;91.78
12897;BME280;6516;35.028;32.372;2022-11-18T05:29:29;100313.72;;;17.95;91.55
12897;BME280;6516;35.028;32.372;2022-11-18T05:31:58;100306.78;;;18.11;90.66
12897;BME280;6516;35.028;32.372;2022-11-18T05:34:26;100315.88;;;18.25;90.13
12897;BME280;6516;35.028;32.372;2022-11-18T05:36:55;100317.78;;;18.42;89.18
12897;BME280;6516;35.028;32.372;2022-11-18T05:39:23;100316.41;;;18.52;89.19
12897;BME280;6516;35.028;32.372;2022-11-18T05:41:51;100315.59;;;18.68;88.25
12897;BME280;6516;35.028;32.372;2022-11-18T05:44:35;100330.78;;;18.85;88.17
12897;BME280;6516;35.028;32.372;2022-11-18T05:47:03;100327.22;;;19.03;87.52
12897;BME280;6516;35.028;32.372;2022-11-18T05:49:31;100326.06;;;19.27;86.14
12897;BME280;6516;35.028;32.372;2022-11-18T05:52:00;100329.03;;;19.55;86.88
12897;BME280;6516;35.028;32.372;2022-11-18T05:54:28;100327.47;;;19.68;87.78
12897;BME280;6516;35.028;32.372;2022-11-18T05:56:56;100333.38;;;19.75;88.23
12897;BME280;6516;35.028;32.372;2022-11-18T05:59:23;100335.94;;;19.76;86.51
12897;BME280;6516;35.028;32.372;2022-11-18T06:01:54;100335.63;;;19.82;83.60
12897;BME280;6516;35.028;32.372;2022-11-18T06:04:28;100332.78;;;19.85;84.01
12897;BME280;6516;35.028;32.372;2022-11-18T06:07:02;100334.03;;;19.95;83.75
12897;BME280;6516;35.028;32.372;2022-11-18T06:09:36;100325.34;;;20.07;83.35
12897;BME280;6516;35.028;32.372;2022-11-18T06:12:07;100328.25;;;20.20;81.89
12897;BME280;6516;35.028;32.372;2022-11-18T06:14:39;100328.13;;;20.38;80.39
12897;BME280;6516;35.028;32.372;2022-11-18T06:17:14;100331.09;;;20.49;78.66
12897;BME280;6516;35.028;32.372;2022-11-18T06:19:44;100327.56;;;20.64;78.00
12897;BME280;6516;35.028;32.372;2022-11-18T06:22:14;100328.69;;;20.76;77.93
12897;BME280;6516;35.028;32.372;2022-11-18T06:24:42;100326.59;;;20.81;74.59
12897;BME280;6516;35.028;32.372;2022-11-18T06:27:10;100331.63;;;21.02;74.50
12897;BME280;6516;35.028;32.372;2022-11-18T06:29:39;100336.88;;;21.19;74.05
12897;BME280;6516;35.028;32.372;2022-11-18T06:32:07;100331.56;;;21.33;73.31
12897;BME280;6516;35.028;32.372;2022-11-18T06:34:35;100330.50;;;21.51;73.38
12897;BME280;6516;35.028;32.372;2022-11-18T06:37:13;100337.53;;;21.68;72.19
12897;BME280;6516;35.028;32.372;2022-11-18T06:39:41;100333.28;;;21.64;71.16
12897;BME280;6516;35.028;32.372;2022-11-18T06:42:08;100336.25;;;21.59;71.53
12897;BME280;6516;35.028;32.372;2022-11-18T06:44:56;100337.03;;;21.61;71.24
12897;BME280;6516;35.028;32.372;2022-11-18T06:47:25;100329.34;;;21.71;70.88
12897;BME280;6516;35.028;32.372;2022-11-18T06:49:53;100334.41;;;21.75;71.49
12897;BME280;6516;35.028;32.372;2022-11-18T06:52:22;100325.63;;;21.87;70.17
12897;BME280;6516;35.028;32.372;2022-11-18T06:54:50;100329.00;;;22.05;69.08
12897;BME280;6516;35.028;32.372;2022-11-18T06:57:18;100317.22;;;22.07;68.86
12897;BME280;6516;35.028;32.372;2022-11-18T06:59:46;100324.50;;;22.05;69.17
12897;BME280;6516;35.028;32.372;2022-11-18T07:02:13;100322.88;;;22.17;68.84
12897;BME280;6516;35.028;32.372;2022-11-18T07:04:43;100328.81;;;22.36;68.48
12897;BME280;6516;35.028;32.372;2022-11-18T07:07:11;100324.31;;;22.36;67.82
12897;BME280;6516;35.028;32.372;2022-11-18T07:09:40;100330.75;;;22.34;67.61
12897;BME280;6516;35.028;32.372;2022-11-18T07:12:09;100327.56;;;22.41;68.41
12897;BME280;6516;35.028;32.372;2022-11-18T07:14:37;100332.06;;;22.41;67.75
12897;BME280;6516;35.028;32.372;2022-11-18T07:17:04;100317.81;;;22.54;67.44
12897;BME280;6516;35.028;32.372;2022-11-18T07:19:32;100322.78;;;22.60;67.08
12897;BME280;6516;35.028;32.372;2022-11-18T07:22:00;100312.44;;;22.54;65.57
12897;BME280;6516;35.028;32.372;2022-11-18T07:24:27;100324.16;;;22.53;66.29
12897;BME280;6516;35.028;32.372;2022-11-18T07:26:57;100330.53;;;22.79;66.32
12897;BME280;6516;35.028;32.372;2022-11-18T07:29:25;100321.91;;;22.74;65.04
12897;BME280;6516;35.028;32.372;2022-11-18T07:31:53;100324.25;;;22.92;65.85
12897;BME280;6516;35.028;32.372;2022-11-18T07:34:20;100321.94;;;23.00;63.37
12897;BME280;6516;35.028;32.372;2022-11-18T07:36:48;100317.66;;;23.10;64.30
12897;BME280;6516;35.028;32.372;2022-11-18T07:39:16;100323.03;;;23.10;64.44
12897;BME280;6516;35.028;32.372;2022-11-18T07:41:44;100326.34;;;23.28;64.61
12897;BME280;6516;35.028;32.372;2022-11-18T07:44:13;100322.72;;;23.29;63.32
12897;BME280;6516;35.028;32.372;2022-11-18T07:46:42;100315.66;;;23.40;64.07
12897;BME280;6516;35.028;32.372;2022-11-18T07:49:10;100326.94;;;23.33;63.31
12897;BME280;6516;35.028;32.372;2022-11-18T07:51:39;100329.00;;;23.42;63.05
12897;BME280;6516;35.028;32.372;2022-11-18T07:54:07;100322.31;;;23.47;62.41
12897;BME280;6516;35.028;32.372;2022-11-18T07:56:36;100324.69;;;23.39;60.08
12897;BME280;6516;35.028;32.372;2022-11-18T07:59:04;100321.22;;;23.37;62.44
12897;BME280;6516;35.028;32.372;2022-11-18T08:01:34;100322.94;;;23.38;63.09
12897;BME280;6516;35.028;32.372;2022-11-18T08:04:07;100319.97;;;23.43;61.74
12897;BME280;6516;35.028;32.372;2022-11-18T08:06:37;100320.41;;;23.49;62.11
12897;BME280;6516;35.028;32.372;2022-11-18T08:09:06;100308.00;;;23.34;61.58
12897;BME280;6516;35.028;32.372;2022-11-18T08:11:34;100315.41;;;23.31;62.29
12897;BME280;6516;35.028;32.372;2022-11-18T08:14:02;100314.94;;;23.24;61.37
12897;BME280;6516;35.028;32.372;2022-11-18T08:16:30;100326.19;;;23.43;61.49
12897;BME280;6516;35.028;32.372;2022-11-18T08:18:59;100317.13;;;23.32;59.75
12897;BME280;6516;35.028;32.372;2022-11-18T08:21:27;100315.34;;;23.57;59.94
12897;BME280;6516;35.028;32.372;2022-11-18T08:23:56;100313.34;;;23.73;59.44
12897;BME280;6516;35.028;32.372;2022-11-18T08:26:25;100307.41;;;24.07;59.36
12897;BME280;6516;35.028;32.372;2022-11-18T08:28:54;100301.34;;;24.04;57.67
12897;BME280;6516;35.028;32.372;2022-11-18T08:31:24;100310.19;;;24.06;58.14
12897;BME280;6516;35.028;32.372;2022-11-18T08:33:56;100302.28;;;23.78;57.75
12897;BME280;6516;35.028;32.372;2022-11-18T08:36:28;100297.47;;;23.95;56.70
12897;BME280;6516;35.028;32.372;2022-11-18T08:38:57;100301.72;;;23.60;57.44
12897;BME280;6516;35.028;32.372;2022-11-18T08:41:30;100300.53;;;23.64;59.59
12897;BME280;6516;35.028;32.372;2022-11-18T08:43:58;100303.22;;;23.64;60.20
12897;BME280;6516;35.028;32.372;2022-11-18T08:46:26;100306.16;;;23.86;60.36
12897;BME280;6516;35.028;32.372;2022-11-18T08:48:54;100299.41;;;23.93;59.82
12897;BME280;6516;35.028;32.372;2022-11-18T08:51:22;100296.31;;;23.99;58.56
12897;BME280;6516;35.028;32.372;2022-11-18T08:53:51;100288.22;;;23.99;58.43
12897;BME280;6516;35.028;32.372;2022-11-18T08:56:20;100288.19;;;24.24;57.27
12897;BME280;6516;35.028;32.372;2022-11-18T08:58:48;100295.00;;;24.17;58.88
12897;BME280;6516;35.028;32.372;2022-11-18T09:01:16;100283.91;;;24.09;57.53
12897;BME280;6516;35.028;32.372;2022-11-18T09:03:44;100285.38;;;23.88;57.80
12897;BME280;6516;35.028;32.372;2022-11-18T09:06:13;100283.81;;;23.98;58.67
12897;BME280;6516;35.028;32.372;2022-11-18T09:08:42;100281.13;;;23.98;56.70
12897;BME280;6516;35.028;32.372;2022-11-18T09:11:13;100273.97;;;23.85;58.34
12897;BME280;6516;35.028;32.372;2022-11-18T09:13:42;100278.66;;;23.95;58.94
12897;BME280;6516;35.028;32.372;2022-11-18T09:16:12;100277.47;;;23.99;57.07
12897;BME280;6516;35.028;32.372;2022-11-18T09:18:40;100280.47;;;24.20;57.84
12897;BME280;6516;35.028;32.372;2022-11-18T09:21:08;100283.75;;;24.36;57.90
12897;BME280;6516;35.028;32.372;2022-11-18T09:23:37;100280.50;;;24.07;58.31
12897;BME280;6516;35.028;32.372;2022-11-18T09:26:07;100284.34;;;23.91;58.89
12897;BME280;6516;35.028;32.372;2022-11-18T09:28:38;100283.22;;;23.81;60.08
12897;BME280;6516;35.028;32.372;2022-11-18T09:31:08;100283.34;;;23.79;59.80
12897;BME280;6516;35.028;32.372;2022-11-18T09:33:37;100274.97;;;23.71;58.73
12897;BME280;6516;35.028;32.372;2022-11-18T09:36:10;100268.81;;;23.69;58.19
12897;BME280;6516;35.028;32.372;2022-11-18T09:38:39;100276.25;;;23.78;57.36
12897;BME280;6516;35.028;32.372;2022-11-18T09:41:16;100273.97;;;23.85;57.91
12897;BME280;6516;35.028;32.372;2022-11-18T09:44:02;100273.69;;;24.14;57.82
12897;BME280;6516;35.028;32.372;2022-11-18T09:46:45;100278.28;;;24.37;56.22
12897;BME280;6516;35.028;32.372;2022-11-18T09:49:25;100268.06;;;24.30;56.75
12897;BME280;6516;35.028;32.372;2022-11-18T09:52:02;100273.22;;;24.20;56.57
12897;BME280;6516;35.028;32.372;2022-11-18T09:54:34;100269.25;;;24.26;56.15
12897;BME280;6516;35.028;32.372;2022-11-18T09:57:10;100276.81;;;24.08;56.65
12897;BME280;6516;35.028;32.372;2022-11-18T09:59:42;100273.56;;;24.16;56.32
12897;BME280;6516;35.028;32.372;2022-11-18T10:02:41;100273.34;;;24.31;54.17
12897;BME280;6516;35.028;32.372;2022-11-18T10:05:16;100264.63;;;24.15;55.44
12897;BME280;6516;35.028;32.372;2022-11-18T10:07:58;100266.91;;;24.09;56.77
12897;BME280;6516;35.028;32.372;2022-11-18T10:10:38;100265.81;;;24.11;56.45
12897;BME280;6516;35.028;32.372;2022-11-18T10:13:17;100264.75;;;24.26;56.35
12897;BME280;6516;35.028;32.372;2022-11-18T10:15:59;100270.13;;;24.14;56.84
12897;BME280;6516;35.028;32.372;2022-11-18T10:18:37;100270.25;;;24.12;56.39
12897;BME280;6516;35.028;32.372;2022-11-18T10:21:17;100259.38;;;24.01;56.96
12897;BME280;6516;35.028;32.372;2022-11-18T10:23:54;100262.38;;;24.22;56.23
12897;BME280;6516;35.028;32.372;2022-11-18T10:26:32;100260.31;;;24.25;56.73
12897;BME280;6516;35.028;32.372;2022-11-18T10:29:02;100257.53;;;24.14;54.59
12897;BME280;6516;35.028;32.372;2022-11-18T10:31:35;100256.13;;;24.09;55.39
12897;BME280;6516;35.028;32.372;2022-11-18T10:34:04;100260.97;;;24.04;57.60
12897;BME280;6516;35.028;32.372;2022-11-18T10:36:32;100266.25;;;24.18;56.90
12897;BME280;6516;35.028;32.372;2022-11-18T10:39:13;100262.81;;;24.16;57.00
12897;BME280;6516;35.028;32.372;2022-11-18T10:41:44;100250.50;;;24.24;56.16
12897;BME280;6516;35.028;32.372;2022-11-18T10:44:34;100250.50;;;24.24;53.92
12897;BME280;6516;35.028;32.372;2022-11-18T10:47:22;100252.47;;;24.22;54.46
12897;BME280;6516;35.028;32.372;2022-11-18T10:49:53;100250.09;;;24.18;55.71
12897;BME280;6516;35.028;32.372;2022-11-18T10:52:22;100255.25;;;24.33;56.96
12897;BME280;6516;35.028;32.372;2022-11-18T10:55:23;100248.59;;;24.26;54.33
12897;BME280;6516;35.028;32.372;2022-11-18T10:57:57;100252.41;;;24.47;55.66
12897;BME280;6516;35.028;32.372;2022-11-18T11:00:42;100251.03;;;24.29;55.09
12897;BME280;6516;35.028;32.372;2022-11-18T11:03:24;100248.56;;;24.39;54.75
12897;BME280;6516;35.028;32.372;2022-11-18T11:06:27;100252.94;;;24.65;53.69
12897;BME280;6516;35.028;32.372;2022-11-18T11:09:05;100243.00;;;24.17;55.01
12897;BME280;6516;35.028;32.372;2022-11-18T11:11:36;100237.41;;;24.20;55.17
12897;BME280;6516;35.028;32.372;2022-11-18T11:14:22;100237.19;;;24.10;53.13
12897;BME280;6516;35.028;32.372;2022-11-18T11:16:58;100245.59;;;23.93;54.63
12897;BME280;6516;35.028;32.372;2022-11-18T11:19:39;100239.56;;;24.02;54.37
12897;BME280;6516;35.028;32.372;2022-11-18T11:22:10;100229.56;;;24.04;55.17
12897;BME280;6516;35.028;32.372;2022-11-18T11:24:39;100229.75;;;24.14;55.18
12897;BME280;6516;35.028;32.372;2022-11-18T11:27:22;100240.88;;;24.09;55.07
12897;BME280;6516;35.028;32.372;2022-11-18T11:30:18;100241.19;;;23.92;55.82
12897;BME280;6516;35.028;32.372;2022-11-18T11:33:13;100233.75;;;23.83;53.16
12897;BME280;6516;35.028;32.372;2022-11-18T11:36:02;100236.53;;;23.82;55.05
12897;BME280;6516;35.028;32.372;2022-11-18T11:38:53;100234.63;;;23.71;53.82
12897;BME280;6516;35.028;32.372;2022-11-18T11:41:29;100231.59;;;23.63;52.50
12897;BME280;6516;35.028;32.372;2022-11-18T11:44:31;100228.16;;;23.61;54.91
12897;BME280;6516;35.028;32.372;2022-11-18T11:47:15;100233.31;;;23.64;56.49
12897;BME280;6516;35.028;32.372;2022-11-18T11:50:12;100236.00;;;23.64;56.21
12897;BME280;6516;35.028;32.372;2022-11-18T11:52:53;100232.69;;;23.61;55.34
12897;BME280;6516;35.028;32.372;2022-11-18T11:55:35;100233.97;;;23.55;55.85
12897;BME280;6516;35.028;32.372;2022-11-18T11:58:19;100234.41;;;23.49;56.21
12897;BME280;6516;35.028;32.372;2022-11-18T12:00:59;100242.78;;;23.70;56.92
12897;BME280;6516;35.028;32.372;2022-11-18T12:03:44;100243.00;;;23.79;56.89
12897;BME280;6516;35.028;32.372;2022-11-18T12:06:13;100238.59;;;23.78;54.68
12897;BME280;6516;35.028;32.372;2022-11-18T12:08:49;100231.38;;;23.66;55.15
12897;BME280;6516;35.028;32.372;2022-11-18T12:11:32;100237.28;;;23.59;55.92
12897;BME280;6516;35.028;32.372;2022-11-18T12:14:10;100243.09;;;23.53;56.24
12897;BME280;6516;35.028;32.372;2022-11-18T12:16:48;100238.59;;;23.53;56.28
12897;BME280;6516;35.028;32.372;2022-11-18T12:19:21;100232.34;;;23.53;56.64
12897;BME280;6516;35.028;32.372;2022-11-18T12:21:54;100241.38;;;23.39;56.09
12897;BME280;6516;35.028;32.372;2022-11-18T12:24:36;100237.56;;;23.29;57.96
12897;BME280;6516;35.028;32.372;2022-11-18T12:27:13;100242.00;;;23.30;56.61
12897;BME280;6516;35.028;32.372;2022-11-18T12:29:51;100243.38;;;23.23;56.22
12897;BME280;6516;35.028;32.372;2022-11-18T12:32:39;100238.78;;;23.11;54.84
12897;BME280;6516;35.028;32.372;2022-11-18T12:35:25;100240.84;;;23.08;56.24
12897;BME280;6516;35.028;32.372;2022-11-18T12:38:02;100243.03;;;22.89;54.91
12897;BME280;6516;35.028;32.372;2022-11-18T12:40:37;100239.72;;;22.71;55.55
12897;BME280;6516;35.028;32.372;2022-11-18T12:46:52;100248.31;;;22.50;59.54
12897;BME280;6516;35.028;32.372;2022-11-18T12:52:48;100241.88;;;22.38;61.30
12897;BME280;6516;35.028;32.372;2022-11-18T12:55:24;100243.13;;;22.33;59.85
12897;BME280;6516;35.028;32.372;2022-11-18T12:57:58;100248.22;;;22.37;59.71
12897;BME280;6516;35.028;32.372;2022-11-18T13:00:30;100252.34;;;22.43;61.31
12897;BME280;6516;35.028;32.372;2022-11-18T13:03:26;100248.97;;;22.39;60.41
12897;BME280;6516;35.028;32.372;2022-11-18T13:06:04;100251.56;;;22.41;59.69
12897;BME280;6516;35.028;32.372;2022-11-18T13:08:34;100255.41;;;22.37;61.25
12897;BME280;6516;35.028;32.372;2022-11-18T13:11:09;100242.53;;;22.42;59.58
12897;BME280;6516;35.028;32.372;2022-11-18T13:14:16;100256.78;;;22.30;59.79
12897;BME280;6516;35.028;32.372;2022-11-18T13:17:22;100250.53;;;22.15;60.74
12897;BME280;6516;35.028;32.372;2022-11-18T13:20:19;100254.47;;;22.10;60.31
12897;BME280;6516;35.028;32.372;2022-11-18T13:22:51;100261.28;;;21.87;60.96
12897;BME280;6516;35.028;32.372;2022-11-18T13:25:37;100267.13;;;21.80;62.20
12897;BME280;6516;35.028;32.372;2022-11-18T13:28:16;100266.13;;;21.67;62.27
12897;BME280;6516;35.028;32.372;2022-11-18T13:30:52;100261.03;;;21.62;62.75